Terminal Aerodrome Forecast
Issued by NWS

Home | Current Version | Previous Version | Text Only | Print | Product List | Glossary On
Versions: 1 2 3 4 5 6 7 8 9 10 11 12 13 14 15 16 17 18 19 20 21 22 23 24 25 26 27 28 29 30 31 32 33 34 35 36 37 38 39 40 41
000
FTUS41 KBOX 181722
TAFBED
TAF
KBED 181722Z 1818/1918 10006KT P6SM BKN035
     FM190100 13004KT P6SM BKN050
     FM190500 00000KT P6SM BKN110
     FM190700 VRB03KT P6SM SCT120
     FM191300 28008KT P6SM FEW250
     FM191600 30012G23KT P6SM FEW250=

USA.gov is the U.S. government's official web portal to all federal, state and local government web resources and services.